EHL weather

El Bolson Airport
El Bolson, Río Negro Province, Argentina

Public forecast

Using degrees Celsius for public forecast. Weather courtesy of forecast.io.

METAR (pilot weather report)

Closest report is San Carlos De Bariloche Airport, 50.4 nm (93.4 km) NNE. Retrieved 2019/04/25 09:00 UTC (55 minutes ago):

SAZS 250900Z 12005KT 9999 OVC032 12/08 Q1021

TAF (pilot weather forecast)

Closest forecast is San Carlos De Bariloche Airport, 50.4 nm (93.4 km) NNE. Retrieved 2019/04/25 06:00 UTC (4 hours ago):

TAF SAZS 250500Z 2506/2606 18005KT 9999 BKN035 TX12/2518Z TN08/2510Z BECMG 2512/2514 7000 RA BKN020 OVC050 BECMG 2523/2601 05010KT 9999 SCT030 SCT100